sensor_id;sensor_type;location;lat;lon;timestamp;P1;durP1;ratioP1;P2;durP2;ratioP2
3297;SDS011;1661;53.572;10.174;2023-05-17T00:02:20;22.10;;;7.73;;
3297;SDS011;1661;53.572;10.174;2023-05-17T00:04:50;17.57;;;7.40;;
3297;SDS011;1661;53.572;10.174;2023-05-17T00:07:20;19.00;;;6.10;;
3297;SDS011;1661;53.572;10.174;2023-05-17T00:09:46;11.27;;;5.47;;
3297;SDS011;1661;53.572;10.174;2023-05-17T00:12:17;16.93;;;5.80;;
3297;SDS011;1661;53.572;10.174;2023-05-17T00:14:44;15.27;;;6.70;;
3297;SDS011;1661;53.572;10.174;2023-05-17T00:17:11;17.47;;;6.30;;
3297;SDS011;1661;53.572;10.174;2023-05-17T00:19:37;20.40;;;5.87;;
3297;SDS011;1661;53.572;10.174;2023-05-17T00:22:07;21.03;;;5.10;;
3297;SDS011;1661;53.572;10.174;2023-05-17T00:24:34;9.77;;;3.83;;
3297;SDS011;1661;53.572;10.174;2023-05-17T00:27:01;11.87;;;6.07;;
3297;SDS011;1661;53.572;10.174;2023-05-17T00:29:29;18.00;;;6.37;;
3297;SDS011;1661;53.572;10.174;2023-05-17T00:31:55;26.63;;;5.73;;
3297;SDS011;1661;53.572;10.174;2023-05-17T00:34:22;10.03;;;4.80;;
3297;SDS011;1661;53.572;10.174;2023-05-17T00:36:49;21.17;;;5.10;;
3297;SDS011;1661;53.572;10.174;2023-05-17T00:39:16;11.60;;;4.60;;
3297;SDS011;1661;53.572;10.174;2023-05-17T00:41:43;26.60;;;5.40;;
3297;SDS011;1661;53.572;10.174;2023-05-17T00:44:10;34.87;;;7.07;;
3297;SDS011;1661;53.572;10.174;2023-05-17T00:46:40;19.40;;;5.77;;
3297;SDS011;1661;53.572;10.174;2023-05-17T00:49:06;14.80;;;5.27;;
3297;SDS011;1661;53.572;10.174;2023-05-17T00:51:35;15.37;;;4.60;;
3297;SDS011;1661;53.572;10.174;2023-05-17T00:54:03;19.23;;;5.07;;
3297;SDS011;1661;53.572;10.174;2023-05-17T00:56:30;16.03;;;5.47;;
3297;SDS011;1661;53.572;10.174;2023-05-17T00:58:57;16.53;;;6.00;;
3297;SDS011;1661;53.572;10.174;2023-05-17T01:01:26;21.70;;;5.87;;
3297;SDS011;1661;53.572;10.174;2023-05-17T01:03:55;11.77;;;4.70;;
3297;SDS011;1661;53.572;10.174;2023-05-17T01:06:22;13.33;;;6.07;;
3297;SDS011;1661;53.572;10.174;2023-05-17T01:08:49;21.93;;;6.20;;
3297;SDS011;1661;53.572;10.174;2023-05-17T01:11:22;20.83;;;5.53;;
3297;SDS011;1661;53.572;10.174;2023-05-17T01:13:59;22.03;;;6.43;;
3297;SDS011;1661;53.572;10.174;2023-05-17T01:16:35;17.30;;;5.03;;
3297;SDS011;1661;53.572;10.174;2023-05-17T01:19:14;29.00;;;7.17;;
3297;SDS011;1661;53.572;10.174;2023-05-17T01:21:56;11.90;;;5.00;;
3297;SDS011;1661;53.572;10.174;2023-05-17T01:24:32;16.00;;;4.97;;
3297;SDS011;1661;53.572;10.174;2023-05-17T01:27:11;25.30;;;6.70;;
3297;SDS011;1661;53.572;10.174;2023-05-17T01:29:39;27.00;;;6.20;;
3297;SDS011;1661;53.572;10.174;2023-05-17T01:32:08;18.53;;;5.17;;
3297;SDS011;1661;53.572;10.174;2023-05-17T01:34:38;26.53;;;5.87;;
3297;SDS011;1661;53.572;10.174;2023-05-17T01:37:06;17.97;;;4.80;;
3297;SDS011;1661;53.572;10.174;2023-05-17T01:39:36;12.53;;;4.90;;
3297;SDS011;1661;53.572;10.174;2023-05-17T01:42:03;14.63;;;5.13;;
3297;SDS011;1661;53.572;10.174;2023-05-17T01:44:39;12.83;;;5.90;;
3297;SDS011;1661;53.572;10.174;2023-05-17T01:47:14;22.23;;;5.00;;
3297;SDS011;1661;53.572;10.174;2023-05-17T01:49:46;13.70;;;4.50;;
3297;SDS011;1661;53.572;10.174;2023-05-17T01:52:17;14.83;;;5.00;;
3297;SDS011;1661;53.572;10.174;2023-05-17T01:54:50;20.83;;;4.13;;
3297;SDS011;1661;53.572;10.174;2023-05-17T01:57:24;11.33;;;3.70;;
3297;SDS011;1661;53.572;10.174;2023-05-17T01:59:55;11.90;;;3.47;;
3297;SDS011;1661;53.572;10.174;2023-05-17T02:02:25;17.77;;;4.30;;
3297;SDS011;1661;53.572;10.174;2023-05-17T02:04:52;13.63;;;5.10;;
3297;SDS011;1661;53.572;10.174;2023-05-17T02:07:19;17.37;;;4.73;;
3297;SDS011;1661;53.572;10.174;2023-05-17T02:09:46;9.17;;;3.90;;
3297;SDS011;1661;53.572;10.174;2023-05-17T02:12:13;16.07;;;4.30;;
3297;SDS011;1661;53.572;10.174;2023-05-17T02:14:39;25.23;;;6.00;;
3297;SDS011;1661;53.572;10.174;2023-05-17T02:17:08;13.87;;;4.83;;
3297;SDS011;1661;53.572;10.174;2023-05-17T02:19:34;20.93;;;4.87;;
3297;SDS011;1661;53.572;10.174;2023-05-17T02:22:04;13.03;;;3.67;;
3297;SDS011;1661;53.572;10.174;2023-05-17T02:24:31;22.13;;;4.90;;
3297;SDS011;1661;53.572;10.174;2023-05-17T02:26:58;16.90;;;4.53;;
3297;SDS011;1661;53.572;10.174;2023-05-17T02:29:24;9.90;;;3.23;;
3297;SDS011;1661;53.572;10.174;2023-05-17T02:31:54;18.87;;;5.13;;
3297;SDS011;1661;53.572;10.174;2023-05-17T02:34:25;13.27;;;3.63;;
3297;SDS011;1661;53.572;10.174;2023-05-17T02:36:51;8.13;;;3.00;;
3297;SDS011;1661;53.572;10.174;2023-05-17T02:39:25;11.43;;;3.57;;
3297;SDS011;1661;53.572;10.174;2023-05-17T02:41:52;16.30;;;4.77;;
3297;SDS011;1661;53.572;10.174;2023-05-17T02:44:19;9.50;;;3.10;;
3297;SDS011;1661;53.572;10.174;2023-05-17T02:46:46;11.43;;;3.00;;
3297;SDS011;1661;53.572;10.174;2023-05-17T02:49:14;10.07;;;3.63;;
3297;SDS011;1661;53.572;10.174;2023-05-17T02:51:42;17.90;;;4.33;;
3297;SDS011;1661;53.572;10.174;2023-05-17T02:54:09;11.63;;;3.83;;
3297;SDS011;1661;53.572;10.174;2023-05-17T02:56:36;12.67;;;3.33;;
3297;SDS011;1661;53.572;10.174;2023-05-17T02:59:02;6.50;;;3.30;;
3297;SDS011;1661;53.572;10.174;2023-05-17T03:01:29;8.87;;;3.27;;
3297;SDS011;1661;53.572;10.174;2023-05-17T03:03:56;12.30;;;3.10;;
3297;SDS011;1661;53.572;10.174;2023-05-17T03:06:23;12.23;;;3.63;;
3297;SDS011;1661;53.572;10.174;2023-05-17T03:08:51;17.83;;;3.30;;
3297;SDS011;1661;53.572;10.174;2023-05-17T03:11:18;9.20;;;3.40;;
3297;SDS011;1661;53.572;10.174;2023-05-17T03:13:45;8.90;;;4.30;;
3297;SDS011;1661;53.572;10.174;2023-05-17T03:16:15;11.80;;;3.40;;
3297;SDS011;1661;53.572;10.174;2023-05-17T03:18:42;11.37;;;3.47;;
3297;SDS011;1661;53.572;10.174;2023-05-17T03:21:09;14.47;;;4.33;;
3297;SDS011;1661;53.572;10.174;2023-05-17T03:23:36;10.27;;;3.63;;
3297;SDS011;1661;53.572;10.174;2023-05-17T03:26:04;10.13;;;3.03;;
3297;SDS011;1661;53.572;10.174;2023-05-17T03:28:31;3.90;;;2.00;;
3297;SDS011;1661;53.572;10.174;2023-05-17T03:30:57;13.47;;;4.23;;
3297;SDS011;1661;53.572;10.174;2023-05-17T03:33:24;5.40;;;2.80;;
3297;SDS011;1661;53.572;10.174;2023-05-17T03:35:51;17.97;;;5.23;;
3297;SDS011;1661;53.572;10.174;2023-05-17T03:38:18;18.80;;;4.50;;
3297;SDS011;1661;53.572;10.174;2023-05-17T03:40:45;6.50;;;4.17;;
3297;SDS011;1661;53.572;10.174;2023-05-17T03:43:13;6.53;;;2.60;;
3297;SDS011;1661;53.572;10.174;2023-05-17T03:45:39;12.33;;;3.67;;
3297;SDS011;1661;53.572;10.174;2023-05-17T03:48:06;7.83;;;2.50;;
3297;SDS011;1661;53.572;10.174;2023-05-17T03:50:33;12.43;;;4.07;;
3297;SDS011;1661;53.572;10.174;2023-05-17T03:53:00;10.43;;;2.40;;
3297;SDS011;1661;53.572;10.174;2023-05-17T03:55:26;11.33;;;3.70;;
3297;SDS011;1661;53.572;10.174;2023-05-17T03:57:53;10.83;;;3.97;;
3297;SDS011;1661;53.572;10.174;2023-05-17T04:00:22;10.60;;;2.90;;
3297;SDS011;1661;53.572;10.174;2023-05-17T04:02:51;5.63;;;2.37;;
3297;SDS011;1661;53.572;10.174;2023-05-17T04:05:18;27.47;;;4.73;;
3297;SDS011;1661;53.572;10.174;2023-05-17T04:07:45;15.17;;;3.53;;
3297;SDS011;1661;53.572;10.174;2023-05-17T04:10:14;18.77;;;2.97;;
3297;SDS011;1661;53.572;10.174;2023-05-17T04:12:40;7.20;;;2.13;;
3297;SDS011;1661;53.572;10.174;2023-05-17T04:15:07;7.30;;;3.00;;
3297;SDS011;1661;53.572;10.174;2023-05-17T04:17:37;9.50;;;3.30;;
3297;SDS011;1661;53.572;10.174;2023-05-17T04:20:04;10.97;;;3.47;;
3297;SDS011;1661;53.572;10.174;2023-05-17T04:22:35;11.10;;;3.20;;
3297;SDS011;1661;53.572;10.174;2023-05-17T04:25:02;18.47;;;4.30;;
3297;SDS011;1661;53.572;10.174;2023-05-17T04:27:29;20.63;;;5.90;;
3297;SDS011;1661;53.572;10.174;2023-05-17T04:29:56;9.03;;;3.00;;
3297;SDS011;1661;53.572;10.174;2023-05-17T04:32:22;23.53;;;5.50;;
3297;SDS011;1661;53.572;10.174;2023-05-17T04:34:51;9.23;;;3.97;;
3297;SDS011;1661;53.572;10.174;2023-05-17T04:37:17;12.30;;;3.80;;
3297;SDS011;1661;53.572;10.174;2023-05-17T04:39:45;12.10;;;3.27;;
3297;SDS011;1661;53.572;10.174;2023-05-17T04:42:15;12.13;;;3.77;;
3297;SDS011;1661;53.572;10.174;2023-05-17T04:44:41;5.47;;;2.60;;
3297;SDS011;1661;53.572;10.174;2023-05-17T04:47:08;9.60;;;3.27;;
3297;SDS011;1661;53.572;10.174;2023-05-17T04:49:41;10.87;;;3.40;;
3297;SDS011;1661;53.572;10.174;2023-05-17T04:52:09;13.77;;;4.20;;
3297;SDS011;1661;53.572;10.174;2023-05-17T04:54:36;21.17;;;3.67;;
3297;SDS011;1661;53.572;10.174;2023-05-17T04:57:03;18.33;;;3.90;;
3297;SDS011;1661;53.572;10.174;2023-05-17T04:59:30;10.10;;;3.40;;
3297;SDS011;1661;53.572;10.174;2023-05-17T05:01:57;23.47;;;5.03;;
3297;SDS011;1661;53.572;10.174;2023-05-17T05:04:24;15.60;;;4.03;;
3297;SDS011;1661;53.572;10.174;2023-05-17T05:06:53;9.73;;;2.70;;
3297;SDS011;1661;53.572;10.174;2023-05-17T05:09:21;10.13;;;3.47;;
3297;SDS011;1661;53.572;10.174;2023-05-17T05:11:48;4.70;;;3.63;;
3297;SDS011;1661;53.572;10.174;2023-05-17T05:14:14;17.53;;;5.27;;
3297;SDS011;1661;53.572;10.174;2023-05-17T05:16:41;14.43;;;4.03;;
3297;SDS011;1661;53.572;10.174;2023-05-17T05:19:08;23.50;;;4.50;;
3297;SDS011;1661;53.572;10.174;2023-05-17T05:21:35;12.40;;;3.20;;
3297;SDS011;1661;53.572;10.174;2023-05-17T05:24:02;16.33;;;4.60;;
3297;SDS011;1661;53.572;10.174;2023-05-17T05:26:30;29.33;;;4.63;;
3297;SDS011;1661;53.572;10.174;2023-05-17T05:28:57;6.37;;;2.57;;
3297;SDS011;1661;53.572;10.174;2023-05-17T05:31:24;16.13;;;4.60;;
3297;SDS011;1661;53.572;10.174;2023-05-17T05:33:51;16.10;;;3.50;;
3297;SDS011;1661;53.572;10.174;2023-05-17T05:36:17;14.60;;;3.60;;
3297;SDS011;1661;53.572;10.174;2023-05-17T05:38:44;15.73;;;3.50;;
3297;SDS011;1661;53.572;10.174;2023-05-17T05:41:12;11.90;;;4.27;;
3297;SDS011;1661;53.572;10.174;2023-05-17T05:43:40;19.83;;;4.40;;
3297;SDS011;1661;53.572;10.174;2023-05-17T05:46:06;13.33;;;3.80;;
3297;SDS011;1661;53.572;10.174;2023-05-17T05:48:33;16.60;;;4.23;;
3297;SDS011;1661;53.572;10.174;2023-05-17T05:51:03;13.43;;;3.83;;
3297;SDS011;1661;53.572;10.174;2023-05-17T05:53:33;13.07;;;3.73;;
3297;SDS011;1661;53.572;10.174;2023-05-17T05:55:59;29.60;;;6.10;;
3297;SDS011;1661;53.572;10.174;2023-05-17T05:58:26;11.43;;;2.80;;
3297;SDS011;1661;53.572;10.174;2023-05-17T06:00:58;20.40;;;4.90;;
3297;SDS011;1661;53.572;10.174;2023-05-17T06:03:27;21.57;;;4.77;;
3297;SDS011;1661;53.572;10.174;2023-05-17T06:05:54;10.47;;;3.70;;
3297;SDS011;1661;53.572;10.174;2023-05-17T06:08:21;21.70;;;4.17;;
3297;SDS011;1661;53.572;10.174;2023-05-17T06:10:48;11.40;;;4.73;;
3297;SDS011;1661;53.572;10.174;2023-05-17T06:13:15;17.10;;;4.00;;
3297;SDS011;1661;53.572;10.174;2023-05-17T06:15:41;11.30;;;3.87;;
3297;SDS011;1661;53.572;10.174;2023-05-17T06:18:10;18.97;;;2.50;;
3297;SDS011;1661;53.572;10.174;2023-05-17T06:20:39;9.07;;;2.73;;
3297;SDS011;1661;53.572;10.174;2023-05-17T06:23:06;11.63;;;3.47;;
3297;SDS011;1661;53.572;10.174;2023-05-17T06:25:36;14.63;;;3.50;;
3297;SDS011;1661;53.572;10.174;2023-05-17T06:28:02;12.60;;;4.70;;
3297;SDS011;1661;53.572;10.174;2023-05-17T06:30:29;13.77;;;3.20;;
3297;SDS011;1661;53.572;10.174;2023-05-17T06:32:56;8.50;;;3.20;;
3297;SDS011;1661;53.572;10.174;2023-05-17T06:35:24;11.33;;;3.70;;
3297;SDS011;1661;53.572;10.174;2023-05-17T06:37:51;15.63;;;3.50;;
3297;SDS011;1661;53.572;10.174;2023-05-17T06:40:18;9.77;;;3.03;;
3297;SDS011;1661;53.572;10.174;2023-05-17T06:42:45;14.43;;;3.30;;
3297;SDS011;1661;53.572;10.174;2023-05-17T06:45:12;15.03;;;3.13;;
3297;SDS011;1661;53.572;10.174;2023-05-17T06:47:39;11.70;;;2.63;;
3297;SDS011;1661;53.572;10.174;2023-05-17T06:50:06;12.33;;;3.27;;
3297;SDS011;1661;53.572;10.174;2023-05-17T06:52:35;11.40;;;3.57;;
3297;SDS011;1661;53.572;10.174;2023-05-17T06:55:02;11.90;;;3.50;;
3297;SDS011;1661;53.572;10.174;2023-05-17T06:57:29;15.80;;;3.60;;
3297;SDS011;1661;53.572;10.174;2023-05-17T06:59:56;16.30;;;2.73;;
3297;SDS011;1661;53.572;10.174;2023-05-17T07:02:23;15.37;;;3.97;;
3297;SDS011;1661;53.572;10.174;2023-05-17T07:04:50;8.17;;;2.70;;
3297;SDS011;1661;53.572;10.174;2023-05-17T07:07:17;14.10;;;3.23;;
3297;SDS011;1661;53.572;10.174;2023-05-17T07:09:45;8.93;;;3.10;;
3297;SDS011;1661;53.572;10.174;2023-05-17T07:12:12;13.90;;;3.23;;
3297;SDS011;1661;53.572;10.174;2023-05-17T07:14:39;19.00;;;3.63;;
3297;SDS011;1661;53.572;10.174;2023-05-17T07:17:09;15.20;;;3.60;;
3297;SDS011;1661;53.572;10.174;2023-05-17T07:19:36;15.97;;;3.53;;
3297;SDS011;1661;53.572;10.174;2023-05-17T07:22:05;5.63;;;3.20;;
3297;SDS011;1661;53.572;10.174;2023-05-17T07:24:39;22.37;;;4.00;;
3297;SDS011;1661;53.572;10.174;2023-05-17T07:49:35;9.33;;;2.97;;
3297;SDS011;1661;53.572;10.174;2023-05-17T07:52:02;6.93;;;2.50;;
3297;SDS011;1661;53.572;10.174;2023-05-17T07:54:29;6.27;;;2.87;;
3297;SDS011;1661;53.572;10.174;2023-05-17T07:56:56;13.73;;;3.40;;
3297;SDS011;1661;53.572;10.174;2023-05-17T07:59:25;11.17;;;3.20;;
3297;SDS011;1661;53.572;10.174;2023-05-17T08:01:52;6.90;;;2.90;;
3297;SDS011;1661;53.572;10.174;2023-05-17T08:04:19;14.40;;;3.23;;
3297;SDS011;1661;53.572;10.174;2023-05-17T08:06:49;15.43;;;3.47;;
3297;SDS011;1661;53.572;10.174;2023-05-17T08:09:16;14.43;;;4.73;;
3297;SDS011;1661;53.572;10.174;2023-05-17T08:11:43;12.07;;;3.10;;
3297;SDS011;1661;53.572;10.174;2023-05-17T08:14:11;11.47;;;2.93;;
3297;SDS011;1661;53.572;10.174;2023-05-17T08:16:39;23.03;;;3.73;;
3297;SDS011;1661;53.572;10.174;2023-05-17T08:19:06;9.80;;;3.20;;
3297;SDS011;1661;53.572;10.174;2023-05-17T08:21:33;10.63;;;3.13;;
3297;SDS011;1661;53.572;10.174;2023-05-17T08:24:02;7.37;;;3.17;;
3297;SDS011;1661;53.572;10.174;2023-05-17T08:26:29;9.80;;;2.93;;
3297;SDS011;1661;53.572;10.174;2023-05-17T08:28:56;13.50;;;3.13;;
3297;SDS011;1661;53.572;10.174;2023-05-17T08:31:23;8.43;;;2.70;;
3297;SDS011;1661;53.572;10.174;2023-05-17T08:33:50;13.00;;;4.20;;
3297;SDS011;1661;53.572;10.174;2023-05-17T08:36:17;11.83;;;3.60;;
3297;SDS011;1661;53.572;10.174;2023-05-17T08:38:43;12.43;;;3.23;;
3297;SDS011;1661;53.572;10.174;2023-05-17T08:41:12;16.70;;;4.10;;
3297;SDS011;1661;53.572;10.174;2023-05-17T08:43:39;12.80;;;2.90;;
3297;SDS011;1661;53.572;10.174;2023-05-17T08:46:08;11.90;;;3.30;;
3297;SDS011;1661;53.572;10.174;2023-05-17T08:48:41;13.73;;;3.47;;
3297;SDS011;1661;53.572;10.174;2023-05-17T08:51:10;7.20;;;2.30;;
3297;SDS011;1661;53.572;10.174;2023-05-17T08:53:37;9.57;;;4.00;;
3297;SDS011;1661;53.572;10.174;2023-05-17T08:56:06;11.87;;;3.33;;
3297;SDS011;1661;53.572;10.174;2023-05-17T08:58:37;18.03;;;4.70;;
3297;SDS011;1661;53.572;10.174;2023-05-17T09:01:05;10.93;;;3.83;;
3297;SDS011;1661;53.572;10.174;2023-05-17T09:03:32;7.10;;;3.17;;
3297;SDS011;1661;53.572;10.174;2023-05-17T09:06:01;9.40;;;3.40;;
3297;SDS011;1661;53.572;10.174;2023-05-17T09:08:28;10.13;;;3.77;;
3297;SDS011;1661;53.572;10.174;2023-05-17T09:10:57;6.97;;;2.67;;
3297;SDS011;1661;53.572;10.174;2023-05-17T09:13:24;22.37;;;4.50;;
3297;SDS011;1661;53.572;10.174;2023-05-17T09:15:52;10.63;;;3.90;;
3297;SDS011;1661;53.572;10.174;2023-05-17T09:18:27;21.50;;;3.87;;
3297;SDS011;1661;53.572;10.174;2023-05-17T09:20:56;7.17;;;2.97;;
3297;SDS011;1661;53.572;10.174;2023-05-17T09:23:29;16.17;;;3.30;;
3297;SDS011;1661;53.572;10.174;2023-05-17T09:26:02;9.00;;;4.37;;
3297;SDS011;1661;53.572;10.174;2023-05-17T09:28:35;11.33;;;4.00;;
3297;SDS011;1661;53.572;10.174;2023-05-17T09:31:05;10.30;;;4.47;;
3297;SDS011;1661;53.572;10.174;2023-05-17T09:33:33;13.60;;;5.00;;
3297;SDS011;1661;53.572;10.174;2023-05-17T09:36:00;9.30;;;3.90;;
3297;SDS011;1661;53.572;10.174;2023-05-17T09:38:27;16.40;;;3.70;;
3297;SDS011;1661;53.572;10.174;2023-05-17T09:40:54;13.43;;;4.00;;
3297;SDS011;1661;53.572;10.174;2023-05-17T09:43:22;8.80;;;3.30;;
3297;SDS011;1661;53.572;10.174;2023-05-17T09:45:53;7.80;;;3.17;;
3297;SDS011;1661;53.572;10.174;2023-05-17T09:48:26;19.37;;;3.97;;
3297;SDS011;1661;53.572;10.174;2023-05-17T09:50:52;15.33;;;3.37;;
3297;SDS011;1661;53.572;10.174;2023-05-17T09:53:23;18.77;;;3.73;;
3297;SDS011;1661;53.572;10.174;2023-05-17T09:55:51;14.77;;;3.17;;
3297;SDS011;1661;53.572;10.174;2023-05-17T09:58:20;9.33;;;3.10;;
3297;SDS011;1661;53.572;10.174;2023-05-17T10:00:51;8.60;;;2.87;;
3297;SDS011;1661;53.572;10.174;2023-05-17T10:03:19;8.50;;;3.57;;
3297;SDS011;1661;53.572;10.174;2023-05-17T10:05:50;12.60;;;3.20;;
3297;SDS011;1661;53.572;10.174;2023-05-17T10:08:20;8.23;;;2.57;;
3297;SDS011;1661;53.572;10.174;2023-05-17T10:10:50;10.10;;;3.87;;
3297;SDS011;1661;53.572;10.174;2023-05-17T10:13:23;6.83;;;2.43;;
3297;SDS011;1661;53.572;10.174;2023-05-17T10:15:55;8.30;;;2.57;;
3297;SDS011;1661;53.572;10.174;2023-05-17T10:18:22;11.13;;;3.63;;
3297;SDS011;1661;53.572;10.174;2023-05-17T10:20:51;13.30;;;3.57;;
3297;SDS011;1661;53.572;10.174;2023-05-17T10:23:18;11.10;;;2.83;;
3297;SDS011;1661;53.572;10.174;2023-05-17T10:25:46;8.47;;;3.63;;
3297;SDS011;1661;53.572;10.174;2023-05-17T10:28:15;12.27;;;3.53;;
3297;SDS011;1661;53.572;10.174;2023-05-17T10:30:43;13.90;;;3.17;;
3297;SDS011;1661;53.572;10.174;2023-05-17T10:33:10;11.73;;;3.10;;
3297;SDS011;1661;53.572;10.174;2023-05-17T10:35:42;11.93;;;3.83;;
3297;SDS011;1661;53.572;10.174;2023-05-17T10:38:11;9.97;;;3.20;;
3297;SDS011;1661;53.572;10.174;2023-05-17T10:40:38;11.00;;;3.47;;
3297;SDS011;1661;53.572;10.174;2023-05-17T10:43:05;6.83;;;2.83;;
3297;SDS011;1661;53.572;10.174;2023-05-17T10:45:34;5.83;;;2.67;;
3297;SDS011;1661;53.572;10.174;2023-05-17T10:48:03;11.70;;;3.40;;
3297;SDS011;1661;53.572;10.174;2023-05-17T10:50:30;5.10;;;2.70;;
3297;SDS011;1661;53.572;10.174;2023-05-17T10:52:58;13.70;;;4.07;;
3297;SDS011;1661;53.572;10.174;2023-05-17T10:55:33;4.20;;;3.40;;
3297;SDS011;1661;53.572;10.174;2023-05-17T10:58:16;5.20;;;3.43;;
3297;SDS011;1661;53.572;10.174;2023-05-17T11:00:47;9.97;;;3.73;;
3297;SDS011;1661;53.572;10.174;2023-05-17T11:03:16;3.87;;;2.07;;
3297;SDS011;1661;53.572;10.174;2023-05-17T11:05:44;6.53;;;2.47;;
3297;SDS011;1661;53.572;10.174;2023-05-17T11:08:40;5.30;;;2.23;;
3297;SDS011;1661;53.572;10.174;2023-05-17T11:11:13;5.77;;;2.13;;
3297;SDS011;1661;53.572;10.174;2023-05-17T11:13:46;6.33;;;2.63;;
3297;SDS011;1661;53.572;10.174;2023-05-17T11:16:19;8.03;;;3.10;;
3297;SDS011;1661;53.572;10.174;2023-05-17T11:18:51;6.47;;;3.33;;
3297;SDS011;1661;53.572;10.174;2023-05-17T11:21:22;3.87;;;2.00;;
3297;SDS011;1661;53.572;10.174;2023-05-17T11:23:54;13.37;;;3.17;;
3297;SDS011;1661;53.572;10.174;2023-05-17T11:26:28;17.37;;;3.03;;
3297;SDS011;1661;53.572;10.174;2023-05-17T11:29:04;6.37;;;2.63;;
3297;SDS011;1661;53.572;10.174;2023-05-17T11:31:35;5.87;;;2.40;;
3297;SDS011;1661;53.572;10.174;2023-05-17T11:34:07;8.40;;;2.70;;
3297;SDS011;1661;53.572;10.174;2023-05-17T11:36:47;9.77;;;2.53;;
3297;SDS011;1661;53.572;10.174;2023-05-17T11:39:19;11.73;;;2.50;;
3297;SDS011;1661;53.572;10.174;2023-05-17T11:41:48;5.80;;;2.77;;
3297;SDS011;1661;53.572;10.174;2023-05-17T11:44:20;5.57;;;2.60;;
3297;SDS011;1661;53.572;10.174;2023-05-17T11:46:49;5.03;;;2.40;;
3297;SDS011;1661;53.572;10.174;2023-05-17T11:49:16;2.93;;;2.47;;
3297;SDS011;1661;53.572;10.174;2023-05-17T11:51:50;5.97;;;2.53;;
3297;SDS011;1661;53.572;10.174;2023-05-17T11:54:23;7.90;;;2.70;;
3297;SDS011;1661;53.572;10.174;2023-05-17T11:56:52;4.87;;;2.40;;
3297;SDS011;1661;53.572;10.174;2023-05-17T11:59:22;8.67;;;2.90;;
3297;SDS011;1661;53.572;10.174;2023-05-17T12:01:49;6.23;;;3.10;;
3297;SDS011;1661;53.572;10.174;2023-05-17T12:04:23;19.73;;;3.87;;
3297;SDS011;1661;53.572;10.174;2023-05-17T12:06:50;7.93;;;2.80;;
3297;SDS011;1661;53.572;10.174;2023-05-17T12:09:17;11.13;;;3.27;;
3297;SDS011;1661;53.572;10.174;2023-05-17T12:11:45;8.73;;;2.30;;
3297;SDS011;1661;53.572;10.174;2023-05-17T12:14:15;7.20;;;2.23;;
3297;SDS011;1661;53.572;10.174;2023-05-17T12:16:42;8.83;;;2.80;;
3297;SDS011;1661;53.572;10.174;2023-05-17T12:19:18;5.67;;;2.27;;
3297;SDS011;1661;53.572;10.174;2023-05-17T12:21:49;5.07;;;2.23;;
3297;SDS011;1661;53.572;10.174;2023-05-17T12:24:16;6.77;;;2.50;;
3297;SDS011;1661;53.572;10.174;2023-05-17T12:26:43;3.30;;;2.13;;
3297;SDS011;1661;53.572;10.174;2023-05-17T12:29:11;9.90;;;2.80;;
3297;SDS011;1661;53.572;10.174;2023-05-17T12:31:44;5.70;;;3.10;;
3297;SDS011;1661;53.572;10.174;2023-05-17T12:34:13;10.80;;;2.90;;
3297;SDS011;1661;53.572;10.174;2023-05-17T12:36:41;4.17;;;2.63;;
3297;SDS011;1661;53.572;10.174;2023-05-17T12:39:08;8.93;;;2.70;;
3297;SDS011;1661;53.572;10.174;2023-05-17T12:41:36;9.93;;;3.50;;
3297;SDS011;1661;53.572;10.174;2023-05-17T12:44:03;9.30;;;3.10;;
3297;SDS011;1661;53.572;10.174;2023-05-17T12:46:32;6.00;;;2.53;;
3297;SDS011;1661;53.572;10.174;2023-05-17T12:49:04;12.27;;;3.67;;
3297;SDS011;1661;53.572;10.174;2023-05-17T12:51:38;8.23;;;2.50;;
3297;SDS011;1661;53.572;10.174;2023-05-17T12:54:06;14.00;;;3.50;;
3297;SDS011;1661;53.572;10.174;2023-05-17T12:56:33;14.00;;;4.63;;
3297;SDS011;1661;53.572;10.174;2023-05-17T12:59:03;25.60;;;3.90;;
3297;SDS011;1661;53.572;10.174;2023-05-17T13:01:32;7.30;;;3.13;;
3297;SDS011;1661;53.572;10.174;2023-05-17T13:04:01;5.93;;;2.63;;
3297;SDS011;1661;53.572;10.174;2023-05-17T13:06:28;5.10;;;3.10;;
3297;SDS011;1661;53.572;10.174;2023-05-17T13:08:58;5.67;;;2.97;;
3297;SDS011;1661;53.572;10.174;2023-05-17T13:11:24;12.10;;;3.43;;
3297;SDS011;1661;53.572;10.174;2023-05-17T13:13:52;5.93;;;2.93;;
3297;SDS011;1661;53.572;10.174;2023-05-17T13:16:26;6.50;;;3.13;;
3297;SDS011;1661;53.572;10.174;2023-05-17T13:18:54;7.33;;;2.70;;
3297;SDS011;1661;53.572;10.174;2023-05-17T13:21:23;6.90;;;3.07;;
3297;SDS011;1661;53.572;10.174;2023-05-17T13:23:49;6.50;;;2.07;;
3297;SDS011;1661;53.572;10.174;2023-05-17T13:26:16;5.80;;;2.57;;
3297;SDS011;1661;53.572;10.174;2023-05-17T13:28:44;9.93;;;2.70;;
3297;SDS011;1661;53.572;10.174;2023-05-17T13:31:13;6.77;;;2.40;;
3297;SDS011;1661;53.572;10.174;2023-05-17T13:33:46;6.73;;;2.67;;
3297;SDS011;1661;53.572;10.174;2023-05-17T13:36:14;3.40;;;2.70;;
3297;SDS011;1661;53.572;10.174;2023-05-17T13:38:46;5.80;;;2.27;;
3297;SDS011;1661;53.572;10.174;2023-05-17T13:41:13;10.23;;;3.27;;
3297;SDS011;1661;53.572;10.174;2023-05-17T13:43:40;14.73;;;4.37;;
3297;SDS011;1661;53.572;10.174;2023-05-17T13:46:07;6.50;;;3.47;;
3297;SDS011;1661;53.572;10.174;2023-05-17T13:48:34;8.73;;;3.00;;
3297;SDS011;1661;53.572;10.174;2023-05-17T13:51:03;8.60;;;2.17;;
3297;SDS011;1661;53.572;10.174;2023-05-17T13:53:37;3.63;;;1.93;;
3297;SDS011;1661;53.572;10.174;2023-05-17T13:56:06;4.80;;;2.30;;
3297;SDS011;1661;53.572;10.174;2023-05-17T13:58:33;9.27;;;2.87;;
3297;SDS011;1661;53.572;10.174;2023-05-17T14:01:00;12.03;;;3.50;;
3297;SDS011;1661;53.572;10.174;2023-05-17T14:03:27;5.20;;;2.63;;
3297;SDS011;1661;53.572;10.174;2023-05-17T14:06:02;4.43;;;3.17;;
3297;SDS011;1661;53.572;10.174;2023-05-17T14:08:33;10.43;;;3.93;;
3297;SDS011;1661;53.572;10.174;2023-05-17T14:11:00;10.47;;;3.33;;
3297;SDS011;1661;53.572;10.174;2023-05-17T14:13:26;11.23;;;3.67;;
3297;SDS011;1661;53.572;10.174;2023-05-17T14:15:53;9.23;;;2.93;;
3297;SDS011;1661;53.572;10.174;2023-05-17T14:18:20;6.53;;;2.87;;
3297;SDS011;1661;53.572;10.174;2023-05-17T14:20:47;5.93;;;3.10;;
3297;SDS011;1661;53.572;10.174;2023-05-17T14:23:15;16.50;;;5.30;;
3297;SDS011;1661;53.572;10.174;2023-05-17T14:25:42;14.10;;;3.50;;
3297;SDS011;1661;53.572;10.174;2023-05-17T14:28:09;10.63;;;3.10;;
3297;SDS011;1661;53.572;10.174;2023-05-17T14:30:36;8.50;;;3.10;;
3297;SDS011;1661;53.572;10.174;2023-05-17T14:33:03;9.73;;;3.13;;
3297;SDS011;1661;53.572;10.174;2023-05-17T14:35:30;7.20;;;2.60;;
3297;SDS011;1661;53.572;10.174;2023-05-17T14:37:56;10.00;;;3.37;;
3297;SDS011;1661;53.572;10.174;2023-05-17T14:40:25;14.87;;;4.00;;
3297;SDS011;1661;53.572;10.174;2023-05-17T14:42:53;12.70;;;3.33;;
3297;SDS011;1661;53.572;10.174;2023-05-17T14:45:20;6.80;;;2.70;;
3297;SDS011;1661;53.572;10.174;2023-05-17T14:47:47;7.90;;;3.27;;
3297;SDS011;1661;53.572;10.174;2023-05-17T14:50:15;6.27;;;3.00;;
3297;SDS011;1661;53.572;10.174;2023-05-17T14:52:42;8.50;;;2.83;;
3297;SDS011;1661;53.572;10.174;2023-05-17T14:55:08;9.50;;;2.87;;
3297;SDS011;1661;53.572;10.174;2023-05-17T14:57:40;14.03;;;3.53;;
3297;SDS011;1661;53.572;10.174;2023-05-17T15:00:08;8.70;;;3.30;;
3297;SDS011;1661;53.572;10.174;2023-05-17T15:02:35;6.13;;;2.43;;
3297;SDS011;1661;53.572;10.174;2023-05-17T15:05:02;9.87;;;3.80;;
3297;SDS011;1661;53.572;10.174;2023-05-17T15:07:29;5.80;;;2.80;;
3297;SDS011;1661;53.572;10.174;2023-05-17T15:09:57;12.23;;;3.90;;
3297;SDS011;1661;53.572;10.174;2023-05-17T15:12:23;16.53;;;3.20;;
3297;SDS011;1661;53.572;10.174;2023-05-17T15:14:53;7.27;;;2.33;;
3297;SDS011;1661;53.572;10.174;2023-05-17T15:17:20;7.80;;;2.00;;
3297;SDS011;1661;53.572;10.174;2023-05-17T15:19:46;4.80;;;1.90;;
3297;SDS011;1661;53.572;10.174;2023-05-17T15:22:13;8.83;;;3.20;;
3297;SDS011;1661;53.572;10.174;2023-05-17T15:24:40;8.37;;;3.00;;